Weather at Kyustendil Airfield [CLOSED]

Public forecast

Using degrees Celsius for public forecast. Weather courtesy of forecast.io.

Closest aviation weather report (METAR) to Kyustendil Airfield

Closest report is Sofia Airport, 39.1 nm (72.4 km) NE.

2024/05/20 18:30 (retrieved 23 minutes ago)

LBSF 201830Z AUTO 11011KT 9999 NCD 16/13 Q1016 NOSIG

Closest aviation forecast (TAF) to Kyustendil Airfield

Closest forecast is Sofia Airport, 39.1 nm (72.4 km) NE.

2024/05/20 18:18 (retrieved 35 minutes ago)

TAF LBSF 201700Z 2018/2118 11010KT 9999 SCT020 BKN050 TEMPO 2102/2106 4000 BR SCT004 BKN015 TEMPO 2112/2117 5000 TSRA FEW030CB BKN040